Time;durP1;ratioP1;P1;durP2;ratioP2;P2;SDS_P1;SDS_P2;PMS_P1;PMS_P2;Temp;Humidity;BMP_temperature;BMP_pressure;BME280_temperature;BME280_humidity;BME280_pressure;Samples;Min_cycle;Max_cycle;Signal;HPM_P1;HPM_P2
2023/06/16 00:01:04;;;;;;;6.00;5.17;;;22.90;45.50;;;;;;4932667;29;20478;-84
2023/06/16 00:03:34;;;;;;;7.27;5.20;;;22.80;45.80;;;;;;4899446;29;20848;-83
2023/06/16 00:06:03;;;;;;;15.33;5.33;;;22.80;45.80;;;;;;4906215;29;20457;-84
2023/06/16 00:08:31;;;;;;;5.73;5.20;;;22.70;45.50;;;;;;4935639;28;20482;-84
2023/06/16 00:11:00;;;;;;;6.93;5.60;;;22.70;45.60;;;;;;4918369;29;20462;-84
2023/06/16 00:13:27;;;;;;;8.10;6.00;;;22.60;46.30;;;;;;4920715;29;20454;-85
2023/06/16 00:15:54;;;;;;;5.77;4.90;;;22.60;46.40;;;;;;4930800;29;20479;-83
2023/06/16 00:18:23;;;;;;;6.53;5.63;;;22.60;47.00;;;;;;4920224;29;20581;-84
2023/06/16 00:20:52;;;;;;;7.87;5.63;;;22.50;46.10;;;;;;4924681;29;20467;-83
2023/06/16 00:23:20;;;;;;;7.40;5.63;;;22.50;46.00;;;;;;4932577;29;20455;-83
2023/06/16 00:25:48;;;;;;;8.13;5.10;;;22.40;46.00;;;;;;4900904;29;20538;-83
2023/06/16 00:28:17;;;;;;;6.83;5.10;;;22.40;46.10;;;;;;4921548;29;20458;-86
2023/06/16 00:30:45;;;;;;;5.70;5.10;;;22.40;46.10;;;;;;4908181;29;20455;-84
2023/06/16 00:33:12;;;;;;;7.43;6.20;;;22.40;46.10;;;;;;4916509;29;20463;-84
2023/06/16 00:35:41;;;;;;;6.67;5.40;;;22.30;46.20;;;;;;4918821;29;20462;-84
2023/06/16 00:38:08;;;;;;;6.93;5.30;;;22.20;46.30;;;;;;4920623;29;20479;-83
2023/06/16 00:40:35;;;;;;;6.10;5.27;;;22.20;46.10;;;;;;4940392;29;20457;-84
2023/06/16 00:43:03;;;;;;;8.67;5.10;;;22.10;45.90;;;;;;4919191;29;20465;-84
2023/06/16 00:45:32;;;;;;;9.10;5.77;;;22.10;45.80;;;;;;4932158;28;20453;-84
2023/06/16 00:48:00;;;;;;;5.10;4.60;;;22.00;46.00;;;;;;4929981;29;20453;-84
2023/06/16 00:50:27;;;;;;;6.03;5.00;;;22.00;46.20;;;;;;4933896;29;20549;-83
2023/06/16 00:52:56;;;;;;;6.57;5.43;;;21.90;46.30;;;;;;4905010;29;20455;-85
2023/06/16 00:55:23;;;;;;;5.83;5.23;;;21.90;46.30;;;;;;4921491;29;20462;-84
2023/06/16 00:57:50;;;;;;;5.57;4.80;;;21.80;46.10;;;;;;4918612;29;20461;-84
2023/06/16 01:00:19;;;;;;;6.57;5.40;;;21.80;45.90;;;;;;4903164;29;20506;-84
2023/06/16 01:02:47;;;;;;;7.70;5.63;;;21.70;46.40;;;;;;4922986;29;20525;-84
2023/06/16 01:05:17;;;;;;;5.90;5.40;;;21.70;46.70;;;;;;4906775;29;20469;-84
2023/06/16 01:07:52;;;;;;;9.27;5.63;;;21.70;46.80;;;;;;4932881;29;20804;-84
2023/06/16 01:10:25;;;;;;;5.83;4.97;;;21.60;47.00;;;;;;4917011;29;20880;-85
2023/06/16 01:13:00;;;;;;;6.70;6.07;;;21.60;47.40;;;;;;4932934;29;20996;-84
2023/06/16 01:15:32;;;;;;;5.77;5.27;;;21.50;48.10;;;;;;4938917;29;20956;-84
2023/06/16 01:18:02;;;;;;;8.10;5.80;;;21.50;48.40;;;;;;4906768;29;21027;-85
2023/06/16 01:20:39;;;;;;;7.07;5.63;;;21.50;48.40;;;;;;4900235;29;20451;-84
2023/06/16 01:23:20;;;;;;;5.30;4.80;;;21.40;47.70;;;;;;4906944;29;20451;-85
2023/06/16 01:25:50;;;;;;;7.07;6.00;;;21.30;47.50;;;;;;4930688;29;20460;-85
2023/06/16 01:28:20;;;;;;;6.90;6.30;;;21.30;47.50;;;;;;4916204;29;20463;-85
2023/06/16 01:30:50;;;;;;;6.30;5.70;;;21.30;47.50;;;;;;4907546;29;20454;-85
2023/06/16 01:33:20;;;;;;;6.10;5.40;;;21.20;47.50;;;;;;4936286;29;20478;-85
2023/06/16 01:35:47;;;;;;;6.50;5.70;;;21.20;47.60;;;;;;4915899;29;20457;-85
2023/06/16 01:38:15;;;;;;;6.27;5.40;;;21.20;48.10;;;;;;4939265;28;20447;-84
2023/06/16 01:40:43;;;;;;;7.17;5.17;;;21.10;48.10;;;;;;4907381;29;20480;-83
2023/06/16 01:43:12;;;;;;;6.40;5.57;;;21.10;47.80;;;;;;4899186;29;21241;-84
2023/06/16 01:45:40;;;;;;;5.60;5.10;;;21.10;47.70;;;;;;4920520;29;20454;-84
2023/06/16 01:48:08;;;;;;;7.00;5.20;;;21.00;47.40;;;;;;4905760;29;20453;-84
2023/06/16 01:50:35;;;;;;;5.97;5.43;;;21.00;47.40;;;;;;4935906;29;20829;-84
2023/06/16 01:53:02;;;;;;;7.80;5.77;;;21.00;47.50;;;;;;4937118;29;20454;-85
2023/06/16 01:55:29;;;;;;;8.23;5.60;;;20.90;47.60;;;;;;4922847;29;20465;-85
2023/06/16 01:57:57;;;;;;;7.23;5.50;;;20.80;47.80;;;;;;4932459;29;20435;-85
2023/06/16 02:00:29;;;;;;;6.60;5.60;;;20.00;48.60;;;;;;4926947;29;20478;-86
2023/06/16 02:03:06;;;;;;;6.70;5.17;;;20.00;48.90;;;;;;4935477;29;20478;-86
2023/06/16 02:05:35;;;;;;;7.00;5.20;;;20.10;48.80;;;;;;4925942;29;20617;-87
2023/06/16 02:08:05;;;;;;;5.70;5.10;;;20.20;48.60;;;;;;4910216;29;21144;-87
2023/06/16 02:10:33;;;;;;;7.03;5.27;;;20.30;48.40;;;;;;4910608;29;20457;-86
2023/06/16 02:13:00;;;;;;;6.97;5.23;;;20.30;48.10;;;;;;4902529;29;20711;-86
2023/06/16 02:15:29;;;;;;;6.23;5.30;;;20.30;47.80;;;;;;4921218;29;20470;-87
2023/06/16 02:17:57;;;;;;;8.80;5.90;;;20.30;48.00;;;;;;4932511;29;20577;-88
2023/06/16 02:20:25;;;;;;;6.10;5.50;;;20.30;48.40;;;;;;4910492;29;20819;-87
2023/06/16 02:22:53;;;;;;;5.80;5.20;;;20.30;48.50;;;;;;4918591;29;20481;-87
2023/06/16 02:25:20;;;;;;;7.97;4.97;;;20.30;48.40;;;;;;4944658;28;20482;-86
2023/06/16 02:27:47;;;;;;;6.87;5.57;;;20.30;48.20;;;;;;4921132;29;20458;-87
2023/06/16 02:30:15;;;;;;;6.27;5.67;;;20.30;48.40;;;;;;4910129;29;20581;-87
2023/06/16 02:32:47;;;;;;;6.60;5.40;;;20.20;48.30;;;;;;4925225;29;20455;-87
2023/06/16 02:35:14;;;;;;;5.67;5.00;;;20.20;48.30;;;;;;4925157;29;20968;-87
2023/06/16 02:37:41;;;;;;;5.83;5.20;;;20.10;48.20;;;;;;4942195;29;20457;-87
2023/06/16 02:40:10;;;;;;;5.93;5.33;;;19.80;48.40;;;;;;4916324;29;20478;-86
2023/06/16 02:42:37;;;;;;;6.03;5.50;;;19.60;48.80;;;;;;4907337;29;20462;-86
2023/06/16 02:45:07;;;;;;;6.17;5.60;;;19.60;49.10;;;;;;4907849;29;20455;-87
2023/06/16 02:47:34;;;;;;;6.30;5.20;;;19.70;48.50;;;;;;4920003;29;20485;-86
2023/06/16 02:50:03;;;;;;;6.10;5.37;;;19.70;47.80;;;;;;4920814;29;20537;-87
2023/06/16 02:52:32;;;;;;;9.10;6.20;;;19.60;48.10;;;;;;4901766;29;20439;-87
2023/06/16 02:55:00;;;;;;;5.93;5.43;;;19.60;48.30;;;;;;4919187;29;20453;-87
2023/06/16 02:57:34;;;;;;;7.53;6.60;;;19.60;48.80;;;;;;4925306;28;20457;-87
2023/06/16 03:00:01;;;;;;;5.90;5.40;;;19.60;49.40;;;;;;4904803;29;20485;-86
2023/06/16 03:02:32;;;;;;;6.57;5.90;;;19.60;49.50;;;;;;4909057;29;20557;-86
2023/06/16 03:05:06;;;;;;;5.70;5.20;;;19.60;49.40;;;;;;4926317;29;20841;-87
2023/06/16 03:07:35;;;;;;;13.40;7.10;;;19.70;49.40;;;;;;4908128;29;20493;-87
2023/06/16 03:10:06;;;;;;;6.60;5.90;;;19.60;49.50;;;;;;4918259;29;20931;-86
2023/06/16 03:12:44;;;;;;;11.73;6.20;;;19.20;49.40;;;;;;4907317;29;20462;-87
2023/06/16 03:15:12;;;;;;;8.50;5.90;;;19.20;49.90;;;;;;4924689;29;20451;-87
2023/06/16 03:17:38;;;;;;;14.57;6.53;;;19.30;49.60;;;;;;4931315;29;20961;-87
2023/06/16 03:20:08;;;;;;;6.37;5.73;;;19.40;49.50;;;;;;4910022;29;20948;-86
2023/06/16 03:22:48;;;;;;;11.30;6.07;;;19.40;49.20;;;;;;4908864;29;20477;-86
2023/06/16 03:25:16;;;;;;;8.03;6.60;;;19.50;49.10;;;;;;4941799;28;20486;-87
2023/06/16 03:27:46;;;;;;;6.73;5.60;;;19.50;48.90;;;;;;4909374;29;20450;-87
2023/06/16 03:30:18;;;;;;;7.03;5.73;;;19.50;49.10;;;;;;4904427;29;21304;-86
2023/06/16 03:33:15;;;;;;;7.17;6.20;;;19.50;50.20;;;;;;4928618;29;20926;-87
2023/06/16 03:35:46;;;;;;;6.63;5.53;;;19.40;49.60;;;;;;4909361;29;20457;-86
2023/06/16 03:38:22;;;;;;;7.60;6.00;;;19.50;49.90;;;;;;4910354;29;20494;-87
2023/06/16 03:40:50;;;;;;;5.77;5.20;;;19.50;49.90;;;;;;4922063;29;20515;-86
2023/06/16 03:43:17;;;;;;;6.50;5.90;;;19.50;49.90;;;;;;4925078;29;21055;-87
2023/06/16 03:45:44;;;;;;;11.87;7.07;;;19.50;50.00;;;;;;4919512;29;20455;-86
2023/06/16 03:48:11;;;;;;;6.40;5.77;;;19.40;50.20;;;;;;4919822;29;21096;-88
2023/06/16 03:50:46;;;;;;;7.47;6.10;;;19.40;50.30;;;;;;4920783;29;20454;-86
2023/06/16 03:53:14;;;;;;;6.43;5.57;;;19.40;49.90;;;;;;4919758;29;20467;-86
2023/06/16 03:55:41;;;;;;;8.03;6.10;;;19.40;49.70;;;;;;4950808;28;20539;-89
2023/06/16 03:58:08;;;;;;;6.20;5.50;;;19.40;49.90;;;;;;4905267;28;20455;-87
2023/06/16 04:00:35;;;;;;;7.77;6.97;;;19.40;49.80;;;;;;4910477;29;20549;-89
2023/06/16 04:03:03;;;;;;;7.17;5.87;;;19.10;50.20;;;;;;4914815;29;20497;-88
2023/06/16 04:05:31;;;;;;;11.20;6.70;;;18.90;50.80;;;;;;4917867;29;20678;-87
2023/06/16 04:08:01;;;;;;;9.20;6.63;;;18.70;51.30;;;;;;4903379;29;20478;-88
2023/06/16 04:10:29;;;;;;;8.03;6.30;;;18.70;51.20;;;;;;4917888;29;20485;-89
2023/06/16 04:12:56;;;;;;;10.50;6.83;;;18.20;52.30;;;;;;4913362;29;20451;-88
2023/06/16 04:15:24;;;;;;;7.10;6.23;;;18.40;52.10;;;;;;4922884;29;20507;-88
2023/06/16 04:17:52;;;;;;;8.60;6.30;;;18.70;51.90;;;;;;4906489;29;20517;-88
2023/06/16 04:20:20;;;;;;;6.90;6.03;;;18.80;51.70;;;;;;4902925;29;20851;-88
2023/06/16 04:22:48;;;;;;;7.10;6.37;;;18.80;52.00;;;;;;4907004;29;20477;-88
2023/06/16 04:25:17;;;;;;;15.67;6.93;;;19.00;52.10;;;;;;4922161;29;20824;-88
2023/06/16 04:27:49;;;;;;;7.40;6.57;;;19.10;52.40;;;;;;4899967;29;20491;-88
2023/06/16 04:30:22;;;;;;;7.80;7.00;;;19.10;51.90;;;;;;4905777;29;21060;-88
2023/06/16 04:32:49;;;;;;;7.03;6.40;;;19.20;51.70;;;;;;4929930;28;20486;-88
2023/06/16 04:35:19;;;;;;;6.33;5.73;;;19.20;51.90;;;;;;4902159;29;20478;-89
2023/06/16 04:37:47;;;;;;;7.27;6.67;;;19.00;52.70;;;;;;4917052;29;20463;-90
2023/06/16 04:40:14;;;;;;;6.87;6.17;;;19.10;52.70;;;;;;4901571;29;20475;-89
2023/06/16 04:42:43;;;;;;;8.30;6.30;;;19.20;52.30;;;;;;4898846;29;21064;-89
2023/06/16 04:45:11;;;;;;;14.00;7.40;;;19.30;51.90;;;;;;4916790;29;20473;-89
2023/06/16 04:47:44;;;;;;;7.37;6.63;;;19.40;51.50;;;;;;4924057;29;20454;-89
2023/06/16 04:50:11;;;;;;;8.37;6.03;;;19.30;51.70;;;;;;4919192;29;20482;-88
2023/06/16 04:52:39;;;;;;;7.87;6.00;;;19.40;51.20;;;;;;4921623;29;20963;-89
2023/06/16 04:55:07;;;;;;;7.40;5.97;;;19.60;50.80;;;;;;4899807;29;20991;-89
2023/06/16 04:57:35;;;;;;;8.20;6.80;;;19.60;50.70;;;;;;4908865;29;20462;-89
2023/06/16 05:00:07;;;;;;;7.60;6.90;;;19.60;50.90;;;;;;4931525;28;20471;-89
2023/06/16 05:02:34;;;;;;;6.77;5.90;;;19.40;51.40;;;;;;4915456;29;20857;-89
2023/06/16 05:05:02;;;;;;;9.30;6.23;;;19.50;51.50;;;;;;4918400;29;20465;-88
2023/06/16 05:07:29;;;;;;;7.20;6.47;;;19.50;51.70;;;;;;4916588;29;20470;-89
2023/06/16 05:09:56;;;;;;;10.80;5.97;;;19.50;51.80;;;;;;4905741;29;20475;-89
2023/06/16 05:12:24;;;;;;;11.23;6.23;;;19.60;51.50;;;;;;4917500;29;20531;-89
2023/06/16 05:14:51;;;;;;;9.67;6.67;;;19.50;51.70;;;;;;4918293;29;20459;-89
2023/06/16 05:17:20;;;;;;;10.43;7.47;;;19.60;51.60;;;;;;4912765;29;21112;-89
2023/06/16 05:19:46;;;;;;;6.00;5.40;;;19.70;51.40;;;;;;4922320;29;20462;-88
2023/06/16 05:22:13;;;;;;;6.73;6.00;;;19.50;51.60;;;;;;4920381;29;20987;-89
2023/06/16 05:24:41;;;;;;;7.97;6.50;;;19.40;52.00;;;;;;4922194;29;20455;-89
2023/06/16 05:27:08;;;;;;;8.07;7.27;;;19.30;52.60;;;;;;4931657;29;20454;-89
2023/06/16 05:29:35;;;;;;;8.73;7.03;;;19.30;52.70;;;;;;4928081;29;20488;-89
2023/06/16 05:32:05;;;;;;;7.30;6.10;;;19.50;52.60;;;;;;4899777;29;20688;-89
2023/06/16 05:34:35;;;;;;;11.70;6.70;;;19.60;52.60;;;;;;4907096;29;20454;-90
2023/06/16 05:37:02;;;;;;;10.90;6.70;;;19.80;52.00;;;;;;4904126;29;20950;-88
2023/06/16 05:39:30;;;;;;;8.10;6.17;;;20.00;52.40;;;;;;4929189;28;21089;-89
2023/06/16 05:41:58;;;;;;;7.43;5.60;;;19.90;52.10;;;;;;4923325;29;20454;-89
2023/06/16 05:44:25;;;;;;;7.97;5.47;;;20.00;52.00;;;;;;4931176;29;21050;-89
2023/06/16 05:46:52;;;;;;;6.63;5.40;;;19.80;52.10;;;;;;4902970;29;20455;-89
2023/06/16 05:49:20;;;;;;;12.33;6.43;;;19.80;52.40;;;;;;4903783;29;21894;-88
2023/06/16 05:51:49;;;;;;;7.50;5.87;;;19.80;52.50;;;;;;4903280;29;20474;-89
2023/06/16 05:54:16;;;;;;;7.93;6.20;;;19.80;52.50;;;;;;4938823;28;20473;-89
2023/06/16 05:56:43;;;;;;;7.13;6.43;;;20.10;51.70;;;;;;4917935;29;20810;-89
2023/06/16 05:59:10;;;;;;;8.67;6.47;;;20.40;51.10;;;;;;4938597;28;20482;-89
2023/06/16 06:01:38;;;;;;;8.47;6.63;;;20.40;50.70;;;;;;4932001;29;21261;-89
2023/06/16 06:04:05;;;;;;;7.73;6.00;;;20.30;50.90;;;;;;4925467;29;20482;-89
2023/06/16 06:06:33;;;;;;;8.27;5.37;;;20.30;51.00;;;;;;4911078;29;21036;-89
2023/06/16 06:09:03;;;;;;;7.20;6.50;;;20.40;50.80;;;;;;4909737;29;20477;-91
2023/06/16 06:11:31;;;;;;;6.37;5.77;;;20.40;50.80;;;;;;4912417;29;20523;-89
2023/06/16 06:13:58;;;;;;;10.00;7.10;;;20.50;50.90;;;;;;4907882;29;20447;-89
2023/06/16 06:16:27;;;;;;;7.80;5.40;;;20.40;51.00;;;;;;4920400;29;20493;-90
2023/06/16 06:18:54;;;;;;;6.83;6.10;;;20.40;51.50;;;;;;4927419;29;20549;-89
2023/06/16 06:21:25;;;;;;;7.53;6.30;;;20.60;51.40;;;;;;4927683;29;20548;-88
2023/06/16 06:23:52;;;;;;;6.43;5.10;;;20.80;50.50;;;;;;4927717;29;20510;-89
2023/06/16 06:26:21;;;;;;;11.30;6.40;;;21.00;50.30;;;;;;4902754;29;20467;-89
2023/06/16 06:28:49;;;;;;;7.83;5.80;;;21.10;48.80;;;;;;4904546;29;20984;-89
2023/06/16 06:31:17;;;;;;;6.27;5.70;;;21.50;48.50;;;;;;4922192;29;20450;-88
2023/06/16 06:33:45;;;;;;;7.93;6.23;;;21.60;47.90;;;;;;4910262;29;20461;-89
2023/06/16 06:36:12;;;;;;;9.07;6.20;;;21.90;48.40;;;;;;4911166;29;20947;-88
2023/06/16 06:38:39;;;;;;;7.43;6.07;;;22.10;48.00;;;;;;4930484;29;20482;-90
2023/06/16 06:41:06;;;;;;;6.83;5.10;;;21.90;47.90;;;;;;4926796;29;20544;-90
2023/06/16 06:43:35;;;;;;;6.87;6.17;;;21.90;48.20;;;;;;4913354;29;20561;-89
2023/06/16 06:46:06;;;;;;;6.23;5.60;;;22.20;47.90;;;;;;4907221;29;20466;-88
2023/06/16 06:48:41;;;;;;;9.37;5.80;;;22.50;47.10;;;;;;4923281;29;20470;-89
2023/06/16 06:51:09;;;;;;;10.87;5.90;;;22.50;47.10;;;;;;4944424;29;20494;-89
2023/06/16 06:53:36;;;;;;;6.90;5.47;;;22.40;46.70;;;;;;4939435;29;20988;-89
2023/06/16 06:56:03;;;;;;;11.23;7.20;;;22.50;46.70;;;;;;4923284;29;20442;-88
2023/06/16 06:58:31;;;;;;;7.23;4.97;;;22.40;46.80;;;;;;4911044;29;20999;-89
2023/06/16 07:00:59;;;;;;;8.70;5.60;;;22.40;47.20;;;;;;4928167;29;21222;-88
2023/06/16 07:03:27;;;;;;;6.97;6.17;;;22.40;47.20;;;;;;4912997;29;20467;-89
2023/06/16 07:05:54;;;;;;;5.33;4.77;;;22.50;46.60;;;;;;4920026;29;20525;-89
2023/06/16 07:08:21;;;;;;;7.30;5.37;;;22.80;46.10;;;;;;4921959;29;22060;-90
2023/06/16 07:10:48;;;;;;;5.67;5.17;;;23.00;45.50;;;;;;4914847;29;20451;-89
2023/06/16 07:13:15;;;;;;;7.50;5.60;;;23.20;44.60;;;;;;4910535;29;20450;-89
2023/06/16 07:15:42;;;;;;;6.50;4.93;;;23.40;44.10;;;;;;4927881;29;21011;-89
2023/06/16 07:18:11;;;;;;;5.93;4.90;;;23.30;43.50;;;;;;4945320;29;20449;-88
2023/06/16 07:20:38;;;;;;;6.63;5.33;;;23.20;43.80;;;;;;4928916;29;20461;-88
2023/06/16 07:23:04;;;;;;;9.20;5.53;;;23.60;43.70;;;;;;4940143;28;20848;-89
2023/06/16 07:25:36;;;;;;;5.67;5.13;;;23.80;44.00;;;;;;4909643;29;20509;-88
2023/06/16 07:28:04;;;;;;;5.80;4.60;;;24.10;43.70;;;;;;4911771;29;20462;-91
2023/06/16 07:30:31;;;;;;;8.90;4.60;;;24.40;42.30;;;;;;4919862;29;20454;-89
2023/06/16 07:32:58;;;;;;;9.63;5.57;;;24.60;41.50;;;;;;4927559;29;20450;-88
2023/06/16 07:35:27;;;;;;;5.53;4.93;;;24.70;41.60;;;;;;4911985;29;20494;-89
2023/06/16 07:37:54;;;;;;;6.70;5.03;;;24.70;41.40;;;;;;4928535;29;20461;-88
2023/06/16 07:40:21;;;;;;;8.70;4.80;;;24.90;41.70;;;;;;4912384;29;21266;-89
2023/06/16 07:42:49;;;;;;;9.07;5.20;;;25.20;42.10;;;;;;4911380;29;20471;-87
2023/06/16 07:45:17;;;;;;;5.67;4.83;;;25.30;40.10;;;;;;4920748;29;21005;-87
2023/06/16 07:47:46;;;;;;;9.43;4.80;;;25.30;40.00;;;;;;4940832;29;21236;-88
2023/06/16 07:50:13;;;;;;;7.07;5.43;;;25.50;40.30;;;;;;4931125;28;20474;-87
2023/06/16 07:52:42;;;;;;;11.83;5.20;;;25.60;40.50;;;;;;4906286;29;20454;-86
2023/06/16 07:55:11;;;;;;;10.03;4.80;;;25.80;40.10;;;;;;4909003;29;20455;-87
2023/06/16 07:57:39;;;;;;;8.90;5.47;;;25.90;40.00;;;;;;4937032;29;20462;-90
2023/06/16 08:00:11;;;;;;;6.13;5.37;;;25.80;39.90;;;;;;4924676;29;20493;-88
2023/06/16 08:02:40;;;;;;;5.87;4.70;;;25.70;39.80;;;;;;4936515;29;20461;-87
2023/06/16 08:05:08;;;;;;;5.40;4.90;;;25.70;39.10;;;;;;4923572;29;20569;-86
2023/06/16 08:07:35;;;;;;;7.67;5.27;;;25.80;38.70;;;;;;4925009;29;20717;-88
2023/06/16 08:10:04;;;;;;;9.93;4.60;;;26.10;39.10;;;;;;4906037;29;20980;-89
2023/06/16 08:12:32;;;;;;;5.67;5.13;;;26.40;39.50;;;;;;4925292;29;20458;-88
2023/06/16 08:14:59;;;;;;;6.13;4.97;;;26.50;37.70;;;;;;4916399;29;20892;-88
2023/06/16 08:17:26;;;;;;;4.80;4.30;;;26.70;37.70;;;;;;4941561;28;20458;-86
2023/06/16 08:19:53;;;;;;;7.03;4.73;;;26.30;36.50;;;;;;4921639;29;20470;-87
2023/06/16 08:22:20;;;;;;;5.67;4.23;;;26.30;36.00;;;;;;4929107;29;20462;-87
2023/06/16 08:24:47;;;;;;;6.13;4.37;;;26.30;35.00;;;;;;4917731;29;21133;-87
2023/06/16 08:27:16;;;;;;;5.73;4.30;;;26.40;35.40;;;;;;4914098;29;20641;-87
2023/06/16 08:29:43;;;;;;;11.97;4.60;;;26.30;36.50;;;;;;4931613;28;20991;-87
2023/06/16 08:32:10;;;;;;;8.03;3.97;;;26.70;37.30;;;;;;4938290;29;20450;-87
2023/06/16 08:34:37;;;;;;;4.93;4.17;;;26.80;35.50;;;;;;4916073;29;20498;-88
2023/06/16 08:37:05;;;;;;;6.00;4.70;;;27.00;34.10;;;;;;4904760;29;20458;-89
2023/06/16 08:39:31;;;;;;;6.90;4.77;;;27.10;34.80;;;;;;4922355;29;20497;-88
2023/06/16 08:41:59;;;;;;;5.13;4.40;;;27.00;34.30;;;;;;4903053;29;20505;-89
2023/06/16 08:44:29;;;;;;;9.30;4.77;;;27.10;34.10;;;;;;4901987;29;20891;-91
2023/06/16 08:46:57;;;;;;;6.23;4.50;;;27.00;34.90;;;;;;4914860;29;20913;-87
2023/06/16 08:49:25;;;;;;;4.77;4.13;;;27.20;33.80;;;;;;4927939;29;20849;-87
2023/06/16 08:51:53;;;;;;;8.83;4.83;;;27.30;35.20;;;;;;4905835;29;20451;-88
2023/06/16 08:54:21;;;;;;;6.97;4.40;;;27.30;33.50;;;;;;4914336;29;20494;-88
2023/06/16 08:56:51;;;;;;;4.00;3.60;;;27.30;33.60;;;;;;4905938;29;20494;-87
2023/06/16 08:59:20;;;;;;;4.60;4.20;;;27.50;34.10;;;;;;4932708;28;20482;-87
2023/06/16 09:01:49;;;;;;;5.43;4.00;;;27.40;32.20;;;;;;4908932;29;20454;-87
2023/06/16 09:04:16;;;;;;;4.83;4.43;;;27.80;33.50;;;;;;4914156;29;20813;-86
2023/06/16 09:06:47;;;;;;;6.13;4.07;;;28.10;32.80;;;;;;4905854;29;21003;-87
2023/06/16 09:09:16;;;;;;;5.27;3.83;;;28.20;32.70;;;;;;4931861;29;20856;-87
2023/06/16 09:11:43;;;;;;;4.37;4.07;;;28.30;32.00;;;;;;4936841;29;20604;-87
2023/06/16 09:14:13;;;;;;;5.10;3.70;;;28.40;31.30;;;;;;4924850;29;20445;-87
2023/06/16 09:16:40;;;;;;;3.90;3.60;;;28.30;31.40;;;;;;4920848;29;20470;-87
2023/06/16 09:19:10;;;;;;;4.83;4.43;;;28.50;31.30;;;;;;4917032;29;20996;-87
2023/06/16 09:21:38;;;;;;;7.23;4.60;;;28.30;32.40;;;;;;4906349;29;20562;-86
2023/06/16 09:24:06;;;;;;;4.03;3.63;;;28.20;33.40;;;;;;4906841;29;20477;-87
2023/06/16 09:26:35;;;;;;;4.97;3.80;;;28.20;31.20;;;;;;4902927;29;20458;-88
2023/06/16 09:29:03;;;;;;;4.77;3.57;;;28.30;31.10;;;;;;4917742;29;20557;-87
2023/06/16 09:31:30;;;;;;;6.33;3.90;;;28.50;31.10;;;;;;4929870;29;20505;-87
2023/06/16 09:34:05;;;;;;;4.20;3.80;;;28.70;31.10;;;;;;4896625;29;20461;-87
2023/06/16 09:36:34;;;;;;;4.27;3.97;;;29.10;29.90;;;;;;4911350;29;20470;-87
2023/06/16 09:39:01;;;;;;;7.33;3.97;;;28.90;30.80;;;;;;4903866;29;20936;-87
2023/06/16 09:41:28;;;;;;;5.80;4.50;;;29.20;30.80;;;;;;4904570;29;20450;-87
2023/06/16 09:43:59;;;;;;;5.87;4.60;;;29.00;31.00;;;;;;4915007;29;20471;-88
2023/06/16 09:46:27;;;;;;;4.50;4.10;;;29.20;30.70;;;;;;4902434;29;20470;-88
2023/06/16 09:48:53;;;;;;;4.60;4.20;;;29.00;31.20;;;;;;4920075;29;20497;-87
2023/06/16 09:51:22;;;;;;;5.77;4.60;;;29.10;30.10;;;;;;4920717;29;20450;-85
2023/06/16 09:53:51;;;;;;;5.40;3.60;;;28.70;29.60;;;;;;4921554;29;20461;-87
2023/06/16 09:56:20;;;;;;;3.97;3.50;;;28.40;30.80;;;;;;4928340;29;20545;-87
2023/06/16 09:58:48;;;;;;;4.63;4.23;;;28.60;31.30;;;;;;4911754;29;20479;-86
2023/06/16 10:01:17;;;;;;;4.67;4.27;;;28.90;30.10;;;;;;4915723;29;20451;-87
2023/06/16 10:03:48;;;;;;;5.10;4.00;;;29.00;29.70;;;;;;4906461;29;20447;-87
2023/06/16 10:06:19;;;;;;;5.67;3.87;;;29.10;31.10;;;;;;4915699;29;20450;-87
2023/06/16 10:08:48;;;;;;;4.20;3.80;;;29.20;29.50;;;;;;4940283;28;20486;-87
2023/06/16 10:11:17;;;;;;;6.00;4.23;;;29.20;29.90;;;;;;4931753;29;20466;-87
2023/06/16 10:13:49;;;;;;;7.67;4.20;;;29.30;29.80;;;;;;4909080;29;20674;-86
2023/06/16 10:16:18;;;;;;;6.47;3.87;;;29.50;29.30;;;;;;4930235;29;20470;-86
2023/06/16 10:18:46;;;;;;;5.70;4.33;;;29.90;29.80;;;;;;4923670;29;20481;-86
2023/06/16 10:21:13;;;;;;;4.10;3.70;;;29.90;29.90;;;;;;4927444;29;20728;-86
2023/06/16 10:23:41;;;;;;;6.00;4.10;;;30.20;29.30;;;;;;4932169;28;20459;-86
2023/06/16 10:26:09;;;;;;;4.27;3.90;;;30.10;29.30;;;;;;4916021;29;20942;-86
2023/06/16 10:28:37;;;;;;;6.80;3.53;;;30.00;28.30;;;;;;4919306;29;20470;-86
2023/06/16 10:31:05;;;;;;;4.20;3.80;;;30.30;28.10;;;;;;4917401;29;20469;-87
2023/06/16 10:33:53;;;;;;;4.17;3.87;;;30.30;27.50;;;;;;4931222;28;20466;-86
2023/06/16 10:36:23;;;;;;;4.00;3.70;;;29.80;28.50;;;;;;4916550;29;20956;-86
2023/06/16 10:38:59;;;;;;;6.73;4.23;;;29.40;28.70;;;;;;4932111;29;20489;-87
2023/06/16 10:41:29;;;;;;;4.60;3.83;;;29.60;29.30;;;;;;4933214;29;21024;-86
2023/06/16 10:44:21;;;;;;;4.70;4.20;;;29.90;28.80;;;;;;4935088;29;21054;-86
2023/06/16 10:47:28;;;;;;;4.17;3.80;;;30.00;27.70;;;;;;4943727;29;20466;-86
2023/06/16 10:49:57;;;;;;;4.20;3.80;;;30.20;28.60;;;;;;4921042;29;20466;-87
2023/06/16 10:52:50;;;;;;;5.40;4.47;;;30.20;28.40;;;;;;4920839;29;20954;-88
2023/06/16 10:55:28;;;;;;;6.73;3.60;;;29.90;27.80;;;;;;4933224;29;20506;-87
2023/06/16 10:58:20;;;;;;;11.83;5.30;;;29.40;28.10;;;;;;4926303;29;20458;-87
2023/06/16 11:01:06;;;;;;;6.23;4.17;;;29.20;27.80;;;;;;4936281;28;20449;-85
2023/06/16 11:03:37;;;;;;;4.70;3.40;;;29.50;29.80;;;;;;4919638;29;20450;-86
2023/06/16 11:06:05;;;;;;;6.10;3.20;;;29.90;28.20;;;;;;4927468;29;20483;-86
2023/06/16 11:08:48;;;;;;;3.90;3.50;;;30.30;26.40;;;;;;4912914;29;20482;-88
2023/06/16 11:11:15;;;;;;;4.23;3.83;;;30.30;25.60;;;;;;4924115;29;20453;-86
2023/06/16 11:13:43;;;;;;;5.40;3.97;;;29.90;26.30;;;;;;4919336;29;20982;-86
2023/06/16 11:16:11;;;;;;;6.80;3.60;;;29.70;26.20;;;;;;4922455;29;20465;-86
2023/06/16 11:18:38;;;;;;;4.80;3.70;;;29.60;27.80;;;;;;4920888;28;20475;-87
2023/06/16 11:21:06;;;;;;;4.57;3.47;;;29.10;27.40;;;;;;4937357;29;20463;-88
2023/06/16 11:23:34;;;;;;;4.00;3.50;;;29.00;28.70;;;;;;4919245;29;20868;-86
2023/06/16 11:26:07;;;;;;;5.20;4.13;;;29.10;28.70;;;;;;4936816;29;20491;-86
2023/06/16 11:28:35;;;;;;;4.00;3.60;;;29.50;27.50;;;;;;4933250;28;20566;-88
2023/06/16 11:31:02;;;;;;;4.03;3.70;;;29.60;27.40;;;;;;4934701;29;20454;-87
2023/06/16 11:33:32;;;;;;;5.93;3.40;;;30.10;27.80;;;;;;4925740;29;21035;-88
2023/06/16 11:36:14;;;;;;;5.10;3.43;;;30.40;26.50;;;;;;4935870;29;20549;-84
2023/06/16 11:38:43;;;;;;;5.60;4.17;;;30.70;26.80;;;;;;4927333;29;21012;-86
2023/06/16 11:41:15;;;;;;;4.30;3.10;;;30.90;26.40;;;;;;4916775;29;20610;-85
2023/06/16 11:43:43;;;;;;;3.63;3.33;;;30.50;25.50;;;;;;4910868;29;20538;-86
2023/06/16 11:46:10;;;;;;;4.53;3.83;;;30.50;26.40;;;;;;4922985;29;20475;-88
2023/06/16 11:48:39;;;;;;;3.90;3.60;;;30.60;27.40;;;;;;4921846;29;20486;-88
2023/06/16 11:51:07;;;;;;;4.27;3.50;;;30.50;26.60;;;;;;4910925;29;20451;-88
2023/06/16 11:53:35;;;;;;;6.83;3.77;;;30.30;26.90;;;;;;4927110;29;20470;-87
2023/06/16 11:56:04;;;;;;;4.20;3.80;;;30.30;27.60;;;;;;4934438;29;21155;-87
2023/06/16 11:58:31;;;;;;;8.20;3.37;;;30.00;27.10;;;;;;4927945;29;20478;-88
2023/06/16 12:01:01;;;;;;;3.90;3.10;;;30.10;27.50;;;;;;4932174;29;20550;-85
2023/06/16 12:03:29;;;;;;;3.83;3.27;;;30.00;27.20;;;;;;4923429;29;20498;-86
2023/06/16 12:05:58;;;;;;;7.17;3.60;;;30.00;27.30;;;;;;4936893;28;20476;-87
2023/06/16 12:08:36;;;;;;;5.23;3.57;;;29.90;28.40;;;;;;4936160;28;20457;-86
2023/06/16 12:11:03;;;;;;;5.83;3.93;;;30.00;28.50;;;;;;4917372;29;20870;-87
2023/06/16 12:13:33;;;;;;;4.57;4.13;;;30.30;29.50;;;;;;4923945;29;20465;-87
2023/06/16 12:16:01;;;;;;;5.20;3.93;;;30.70;28.30;;;;;;4933703;29;20459;-86
2023/06/16 12:18:28;;;;;;;3.70;3.40;;;31.10;27.60;;;;;;4910693;29;20489;-87
2023/06/16 12:20:56;;;;;;;7.77;4.70;;;31.10;27.80;;;;;;4927107;29;20467;-87
2023/06/16 12:23:24;;;;;;;6.67;4.13;;;31.40;27.90;;;;;;4922763;29;20490;-87
2023/06/16 12:25:51;;;;;;;7.50;3.70;;;31.60;26.60;;;;;;4934974;29;20494;-90
2023/06/16 12:28:20;;;;;;;4.10;3.70;;;31.30;26.20;;;;;;4920188;28;20463;-86
2023/06/16 12:30:47;;;;;;;5.00;3.80;;;31.10;26.90;;;;;;4934790;29;20489;-87
2023/06/16 12:33:15;;;;;;;3.53;3.20;;;30.80;27.00;;;;;;4919340;29;20466;-87
2023/06/16 12:35:42;;;;;;;5.67;3.67;;;30.60;27.00;;;;;;4919279;29;20462;-87
2023/06/16 12:38:09;;;;;;;3.90;3.60;;;30.20;27.30;;;;;;4914050;29;20487;-87
2023/06/16 12:40:41;;;;;;;4.20;3.80;;;30.00;29.20;;;;;;4908262;29;20442;-88
2023/06/16 12:43:21;;;;;;;4.90;3.93;;;30.10;29.70;;;;;;4909299;29;20455;-86
2023/06/16 12:45:48;;;;;;;5.67;4.30;;;30.00;28.50;;;;;;4907953;29;20984;-86
2023/06/16 12:48:15;;;;;;;5.83;4.50;;;30.00;29.00;;;;;;4905436;28;20518;-87
2023/06/16 12:50:42;;;;;;;4.43;4.13;;;30.20;29.30;;;;;;4932570;29;20455;-86
2023/06/16 12:53:09;;;;;;;4.23;3.83;;;30.20;29.20;;;;;;4932390;29;20474;-88
2023/06/16 12:55:37;;;;;;;5.43;4.00;;;30.30;29.10;;;;;;4904695;29;20469;-87